createdAt,value
2022-12-01T00:01:28.075Z,2.78
2022-12-01T00:04:36.481Z,2.25
2022-12-01T00:07:45.496Z,2.35
2022-12-01T00:10:54.389Z,2.28
2022-12-01T00:14:02.616Z,1.98
2022-12-01T00:17:10.921Z,2.38
2022-12-01T00:20:19.379Z,1.98
2022-12-01T00:23:27.733Z,3.45
2022-12-01T00:26:38.590Z,2.15
2022-12-01T00:29:47.570Z,2.60
2022-12-01T00:32:56.200Z,2.67
2022-12-01T00:36:04.485Z,2.20
2022-12-01T00:39:12.633Z,2.15
2022-12-01T00:42:22.154Z,1.92
2022-12-01T00:45:30.626Z,2.30
2022-12-01T00:48:38.916Z,2.30
2022-12-01T00:51:47.102Z,2.45
2022-12-01T00:54:55.270Z,1.90
2022-12-01T00:58:04.780Z,2.10
2022-12-01T01:01:13.066Z,2.47
2022-12-01T01:04:21.021Z,2.45
2022-12-01T01:07:31.134Z,2.70
2022-12-01T01:10:39.596Z,2.30
2022-12-01T01:13:48.952Z,2.30
2022-12-01T01:16:57.206Z,2.50
2022-12-01T01:20:06.835Z,2.53
2022-12-01T01:23:14.736Z,2.58
2022-12-01T01:26:24.276Z,2.80
2022-12-01T01:29:33.805Z,2.30
2022-12-01T01:32:41.878Z,2.95
2022-12-01T01:35:49.928Z,2.00
2022-12-01T01:38:57.898Z,2.47
2022-12-01T01:42:06.031Z,2.05
2022-12-01T01:45:23.525Z,2.13
2022-12-01T01:48:31.809Z,2.90
2022-12-01T01:51:41.563Z,2.97
2022-12-01T01:54:50.585Z,2.50
2022-12-01T01:57:59.332Z,2.40
2022-12-01T02:01:08.985Z,2.97
2022-12-01T02:04:18.006Z,2.40
2022-12-01T02:07:26.363Z,2.30
2022-12-01T02:10:38.528Z,2.70
2022-12-01T02:13:51.244Z,2.45
2022-12-01T02:17:02.994Z,2.97
2022-12-01T02:20:35.918Z,2.35
2022-12-01T02:24:26.512Z,2.72
2022-12-01T02:27:48.003Z,2.63
2022-12-01T02:30:57.871Z,4.90
2022-12-01T02:34:07.917Z,2.60
2022-12-01T02:37:22.155Z,2.67
2022-12-01T02:40:31.488Z,2.15
2022-12-01T02:43:41.953Z,2.80
2022-12-01T02:46:52.705Z,2.42
2022-12-01T02:50:00.829Z,2.67
2022-12-01T02:53:10.269Z,2.60
2022-12-01T02:56:21.732Z,2.53
2022-12-01T02:59:29.776Z,2.80
2022-12-01T03:02:43.221Z,2.30
2022-12-01T03:05:53.191Z,2.47
2022-12-01T03:09:04.710Z,2.92
2022-12-01T03:12:16.262Z,2.60
2022-12-01T03:15:29.464Z,2.53
2022-12-01T03:18:39.852Z,2.50
2022-12-01T03:21:50.706Z,2.50
2022-12-01T03:24:58.832Z,2.42
2022-12-01T03:28:22.662Z,2.70
2022-12-01T03:31:33.116Z,2.53
2022-12-01T03:34:43.807Z,2.50
2022-12-01T03:37:54.231Z,3.20
2022-12-01T03:41:03.483Z,2.60
2022-12-01T03:44:15.836Z,2.80
2022-12-01T03:47:25.063Z,2.80
2022-12-01T03:50:38.017Z,2.63
2022-12-01T03:53:51.592Z,2.90
2022-12-01T03:57:06.533Z,3.00
2022-12-01T04:00:15.271Z,2.67
2022-12-01T04:03:25.230Z,2.80
2022-12-01T04:06:34.588Z,2.65
2022-12-01T04:09:42.444Z,3.30
2022-12-01T04:12:50.544Z,2.85
2022-12-01T04:15:58.710Z,2.53
2022-12-01T04:19:06.780Z,3.03
2022-12-01T04:22:16.324Z,2.85
2022-12-01T04:25:24.436Z,2.70
2022-12-01T04:28:32.782Z,3.00
2022-12-01T04:31:40.762Z,3.28
2022-12-01T04:34:48.681Z,2.65
2022-12-01T04:37:57.814Z,3.05
2022-12-01T04:41:09.664Z,3.08
2022-12-01T04:44:17.496Z,3.15
2022-12-01T04:47:25.458Z,3.17
2022-12-01T04:50:33.577Z,3.28
2022-12-01T04:53:43.089Z,3.35
2022-12-01T04:56:51.214Z,3.50
2022-12-01T04:59:59.411Z,2.90
2022-12-01T05:03:13.575Z,3.15
2022-12-01T05:06:24.933Z,3.60
2022-12-01T05:09:34.220Z,3.35
2022-12-01T05:12:42.306Z,3.85
2022-12-01T05:15:50.586Z,3.65
2022-12-01T05:19:13.798Z,3.28
2022-12-01T05:25:50.918Z,3.80
2022-12-01T05:28:59.069Z,3.70
2022-12-01T05:32:07.532Z,3.72
2022-12-01T05:35:15.543Z,3.70
2022-12-01T05:38:23.581Z,3.95
2022-12-01T05:41:32.920Z,3.83
2022-12-01T05:44:40.973Z,4.15
2022-12-01T05:47:48.995Z,3.47
2022-12-01T05:50:56.961Z,3.33
2022-12-01T05:54:05.151Z,3.60
2022-12-01T05:57:14.691Z,3.72
2022-12-01T06:00:22.950Z,4.32
2022-12-01T06:03:31.143Z,4.32
2022-12-01T06:06:39.165Z,3.80
2022-12-01T06:09:47.518Z,4.00
2022-12-01T06:12:57.124Z,3.97
2022-12-01T06:16:06.247Z,4.82
2022-12-01T06:19:14.284Z,3.97
2022-12-01T06:22:22.257Z,4.97
2022-12-01T06:25:32.615Z,4.47
2022-12-01T06:28:41.875Z,4.30
2022-12-01T06:31:49.993Z,4.80
2022-12-01T06:34:57.907Z,4.15
2022-12-01T06:38:06.060Z,5.15
2022-12-01T06:41:14.277Z,5.22
2022-12-01T06:44:23.716Z,4.05
2022-12-01T06:47:31.588Z,5.45
2022-12-01T06:50:39.655Z,4.53
2022-12-01T06:53:47.918Z,5.40
2022-12-01T06:56:55.922Z,4.82
2022-12-01T07:00:06.434Z,4.35
2022-12-01T07:03:14.584Z,4.18
2022-12-01T07:06:22.641Z,3.35
2022-12-01T07:09:30.705Z,4.05
2022-12-01T07:12:38.775Z,5.25
2022-12-01T07:15:48.173Z,5.25
2022-12-01T07:18:56.487Z,4.28
2022-12-01T07:22:04.247Z,4.60
2022-12-01T07:25:12.239Z,4.00
2022-12-01T07:28:20.049Z,4.20
2022-12-01T07:31:29.422Z,4.68
2022-12-01T07:34:38.092Z,4.70
2022-12-01T07:37:46.338Z,3.95
2022-12-01T07:40:54.313Z,4.22
2022-12-01T07:44:02.517Z,4.47
2022-12-01T07:47:11.713Z,4.57
2022-12-01T07:50:19.953Z,3.20
2022-12-01T07:53:28.432Z,3.75
2022-12-01T07:56:37.484Z,4.22
2022-12-01T07:59:45.409Z,4.90
2022-12-01T08:02:54.885Z,4.43
2022-12-01T08:06:03.002Z,3.85
2022-12-01T08:09:11.148Z,3.97
2022-12-01T08:12:19.210Z,3.80
2022-12-01T08:15:27.132Z,3.97
2022-12-01T08:18:36.978Z,3.15
2022-12-01T08:21:44.900Z,3.28
2022-12-01T08:24:53.114Z,3.72
2022-12-01T08:28:01.188Z,3.70
2022-12-01T08:31:10.888Z,3.65
2022-12-01T08:34:20.569Z,3.70
2022-12-01T08:37:28.686Z,3.63
2022-12-01T08:40:36.868Z,3.55
2022-12-01T08:44:01.337Z,3.92
2022-12-01T08:47:11.186Z,3.72
2022-12-01T08:50:22.268Z,3.58
2022-12-01T08:53:30.582Z,3.38
2022-12-01T08:56:39.632Z,3.60
2022-12-01T08:59:48.478Z,4.25
2022-12-01T09:02:56.636Z,3.67
2022-12-01T09:06:07.638Z,3.58
2022-12-01T09:09:17.263Z,3.38
2022-12-01T09:12:25.344Z,3.22
2022-12-01T09:15:33.922Z,3.25
2022-12-01T09:18:42.165Z,3.83
2022-12-01T09:21:51.329Z,3.72
2022-12-01T09:24:59.197Z,3.50
2022-12-01T09:28:07.182Z,3.42
2022-12-01T09:31:15.704Z,3.47
2022-12-01T09:34:23.816Z,3.45
2022-12-01T09:37:33.413Z,3.63
2022-12-01T09:40:42.592Z,3.80
2022-12-01T09:43:52.937Z,3.20
2022-12-01T09:47:04.620Z,3.15
2022-12-01T09:50:13.439Z,3.17
2022-12-01T09:53:24.902Z,2.88
2022-12-01T09:56:36.779Z,3.80
2022-12-01T09:59:44.780Z,3.55
2022-12-01T10:02:55.147Z,3.50
2022-12-01T10:09:43.020Z,3.78
2022-12-01T10:16:01.989Z,3.55
2022-12-01T10:19:11.457Z,3.08
2022-12-01T10:22:29.395Z,3.88
2022-12-01T10:25:43.991Z,3.67
2022-12-01T10:28:59.153Z,3.85
2022-12-01T10:32:12.347Z,3.22
2022-12-01T10:35:21.927Z,4.20
2022-12-01T10:38:31.724Z,3.13
2022-12-01T10:41:41.064Z,3.50
2022-12-01T10:44:50.013Z,3.30
2022-12-01T10:48:15.361Z,3.78
2022-12-01T10:51:23.692Z,3.78
2022-12-01T10:54:34.057Z,3.10
2022-12-01T10:57:43.528Z,2.88
2022-12-01T11:01:00.508Z,2.97
2022-12-01T11:04:09.778Z,3.33
2022-12-01T11:07:20.528Z,4.20
2022-12-01T11:10:29.568Z,3.65
2022-12-01T11:13:39.003Z,4.68
2022-12-01T11:16:48.238Z,3.83
2022-12-01T11:19:56.196Z,3.55
2022-12-01T11:23:28.290Z,4.32
2022-12-01T11:26:36.389Z,3.77
2022-12-01T11:29:46.881Z,4.18
2022-12-01T11:32:56.640Z,3.95
2022-12-01T11:36:05.108Z,4.72
2022-12-01T11:39:23.088Z,5.15
2022-12-01T11:42:34.291Z,4.30
2022-12-01T11:45:43.593Z,3.92
2022-12-01T11:48:58.578Z,4.55
2022-12-01T11:52:23.876Z,3.80
2022-12-01T11:55:32.490Z,4.13
2022-12-01T11:58:40.451Z,4.13
2022-12-01T12:02:18.538Z,4.30
2022-12-01T12:05:46.341Z,4.00
2022-12-01T12:09:03.540Z,4.15
2022-12-01T12:12:17.588Z,3.38
2022-12-01T12:15:30.775Z,5.07
2022-12-01T12:21:58.377Z,3.70
2022-12-01T12:25:17.763Z,3.95
2022-12-01T12:28:32.064Z,3.70
2022-12-01T12:31:44.153Z,3.67
2022-12-01T12:34:55.710Z,4.13
2022-12-01T12:38:08.991Z,4.13
2022-12-01T12:41:22.532Z,3.80
2022-12-01T12:44:45.563Z,4.20
2022-12-01T12:51:18.953Z,4.75
2022-12-01T12:54:28.765Z,4.00
2022-12-01T12:57:37.616Z,3.83
2022-12-01T13:00:49.254Z,3.67
2022-12-01T13:03:58.753Z,3.53
2022-12-01T13:07:21.707Z,3.55
2022-12-01T13:13:40.459Z,4.10
2022-12-01T13:16:49.789Z,3.97
2022-12-01T13:19:57.807Z,3.53
2022-12-01T13:23:09.912Z,3.70
2022-12-01T13:26:19.014Z,4.13
2022-12-01T13:29:26.925Z,3.80
2022-12-01T13:32:35.937Z,3.97
2022-12-01T13:35:43.727Z,3.38
2022-12-01T13:39:00.613Z,3.83
2022-12-01T13:42:09.819Z,4.35
2022-12-01T13:45:18.854Z,3.88
2022-12-01T13:48:28.926Z,3.78
2022-12-01T13:52:10.371Z,3.88
2022-12-01T13:55:26.397Z,3.88
2022-12-01T13:58:45.744Z,3.45
2022-12-01T14:02:07.104Z,3.88
2022-12-01T14:05:45.074Z,3.97
2022-12-01T14:08:53.103Z,3.45
2022-12-01T14:12:03.232Z,3.75
2022-12-01T14:15:35.274Z,3.78
2022-12-01T14:18:44.741Z,4.23
2022-12-01T14:21:52.573Z,3.58
2022-12-01T14:25:00.900Z,3.67
2022-12-01T14:28:16.054Z,3.60
2022-12-01T14:31:24.317Z,4.20
2022-12-01T14:34:34.156Z,3.88
2022-12-01T14:37:45.160Z,3.30
2022-12-01T14:40:53.242Z,4.20
2022-12-01T14:44:06.672Z,3.53
2022-12-01T14:47:18.054Z,3.80
2022-12-01T14:50:29.457Z,3.67
2022-12-01T14:53:38.897Z,4.13
2022-12-01T14:56:47.488Z,3.97
2022-12-01T15:00:05.794Z,3.60
2022-12-01T15:03:14.564Z,3.80
2022-12-01T15:06:22.979Z,3.53
2022-12-01T15:09:34.192Z,4.20
2022-12-01T15:12:43.119Z,4.38
2022-12-01T15:15:53.438Z,3.97
2022-12-01T15:19:01.466Z,3.65
2022-12-01T15:22:13.745Z,4.05
2022-12-01T15:25:22.009Z,3.45
2022-12-01T15:28:33.860Z,3.83
2022-12-01T15:31:43.819Z,3.60
2022-12-01T15:34:53.004Z,3.80
2022-12-01T15:38:01.059Z,3.88
2022-12-01T15:44:37.387Z,4.20
2022-12-01T15:47:47.941Z,3.78
2022-12-01T15:51:11.599Z,3.85
2022-12-01T15:54:21.569Z,3.65
2022-12-01T15:57:29.919Z,3.67
2022-12-01T16:00:38.096Z,3.60
2022-12-01T16:03:53.232Z,3.95
2022-12-01T16:07:03.049Z,4.63
2022-12-01T16:10:29.570Z,4.10
2022-12-01T16:13:42.956Z,3.80
2022-12-01T16:16:50.870Z,3.90
2022-12-01T16:20:25.767Z,4.13
2022-12-01T16:23:33.668Z,4.55
2022-12-01T16:26:47.830Z,4.43
2022-12-01T16:29:57.412Z,4.50
2022-12-01T16:33:06.424Z,4.00
2022-12-01T16:36:16.031Z,3.95
2022-12-01T16:39:24.191Z,3.92
2022-12-01T16:42:32.325Z,3.95
2022-12-01T16:45:40.516Z,4.45
2022-12-01T16:48:48.858Z,4.03
2022-12-01T16:52:03.594Z,3.55
2022-12-01T16:55:38.436Z,3.97
2022-12-01T16:58:46.500Z,4.35
2022-12-01T17:01:54.754Z,4.47
2022-12-01T17:05:02.590Z,4.13
2022-12-01T17:08:12.154Z,4.10
2022-12-01T17:11:20.066Z,4.03
2022-12-01T17:14:28.195Z,4.30
2022-12-01T17:17:36.057Z,3.70
2022-12-01T17:20:44.268Z,4.20
2022-12-01T17:23:53.622Z,4.28
2022-12-01T17:27:01.941Z,4.57
2022-12-01T17:30:10.751Z,3.90
2022-12-01T17:33:19.448Z,3.88
2022-12-01T17:36:27.728Z,3.97
2022-12-01T17:39:37.304Z,3.70
2022-12-01T17:42:50.217Z,4.03
2022-12-01T17:45:58.756Z,4.00
2022-12-01T17:49:09.365Z,3.67
2022-12-01T17:52:17.560Z,3.78
2022-12-01T17:55:26.871Z,3.85
2022-12-01T17:58:34.883Z,3.75
2022-12-01T18:01:43.480Z,3.67
2022-12-01T18:04:51.999Z,3.83
2022-12-01T18:08:00.312Z,3.40
2022-12-01T18:11:10.993Z,3.38
2022-12-01T18:14:19.025Z,3.50
2022-12-01T18:17:27.374Z,3.50
2022-12-01T18:20:15.348Z,3.22
2022-12-01T18:23:02.919Z,3.58
2022-12-01T18:25:50.378Z,3.33
2022-12-01T18:28:39.652Z,3.35
2022-12-01T18:31:27.105Z,3.53
2022-12-01T18:34:15.138Z,3.20
2022-12-01T18:37:02.785Z,3.97
2022-12-01T18:39:50.755Z,3.75
2022-12-01T18:42:38.415Z,2.92
2022-12-01T18:45:27.443Z,3.55
2022-12-01T18:48:14.992Z,3.33
2022-12-01T18:51:03.965Z,3.42
2022-12-01T18:53:54.551Z,3.58
2022-12-01T18:56:41.972Z,3.45
2022-12-01T18:59:30.837Z,3.50
2022-12-01T19:02:20.230Z,3.85
2022-12-01T19:05:08.952Z,3.95
2022-12-01T19:07:56.810Z,3.92
2022-12-01T19:10:44.397Z,3.38
2022-12-01T19:13:32.501Z,3.13
2022-12-01T19:16:20.442Z,3.65
2022-12-01T19:19:09.756Z,3.17
2022-12-01T19:21:57.523Z,3.35
2022-12-01T19:24:50.045Z,3.17
2022-12-01T19:27:38.209Z,2.80
2022-12-01T19:30:26.091Z,2.83
2022-12-01T19:33:14.001Z,3.45
2022-12-01T19:36:06.811Z,2.88
2022-12-01T19:41:43.257Z,3.58
2022-12-01T19:44:30.869Z,2.90
2022-12-01T19:47:22.092Z,3.03
2022-12-01T19:50:11.118Z,3.50
2022-12-01T19:53:00.039Z,2.97
2022-12-01T19:55:47.544Z,3.13
2022-12-01T19:58:35.261Z,2.90
2022-12-01T20:01:22.977Z,2.78
2022-12-01T20:04:10.824Z,3.50
2022-12-01T20:06:58.333Z,2.72
2022-12-01T20:09:50.114Z,2.63
2022-12-01T20:12:38.267Z,2.80
2022-12-01T20:15:26.571Z,2.72
2022-12-01T20:18:15.979Z,3.33
2022-12-01T20:21:05.448Z,3.08
2022-12-01T20:23:55.653Z,2.38
2022-12-01T20:26:46.941Z,2.75
2022-12-01T20:29:34.491Z,3.00
2022-12-01T20:32:23.637Z,2.60
2022-12-01T20:35:11.505Z,2.78
2022-12-01T20:37:59.819Z,2.80
2022-12-01T20:40:47.515Z,2.40
2022-12-01T20:43:37.956Z,3.50
2022-12-01T20:46:25.827Z,3.00
2022-12-01T20:49:13.875Z,2.70
2022-12-01T20:52:01.653Z,2.28
2022-12-01T20:54:49.734Z,2.97
2022-12-01T20:57:37.746Z,2.80
2022-12-01T21:00:26.548Z,2.90
2022-12-01T21:03:14.494Z,2.95
2022-12-01T21:06:02.849Z,2.50
2022-12-01T21:08:50.888Z,2.65
2022-12-01T21:11:58.392Z,2.60
2022-12-01T21:14:47.950Z,2.38
2022-12-01T21:17:38.744Z,2.55
2022-12-01T21:20:29.800Z,2.55
2022-12-01T21:23:17.260Z,2.33
2022-12-01T21:26:09.784Z,2.70
2022-12-01T21:31:46.916Z,2.80
2022-12-01T21:34:35.982Z,2.58
2022-12-01T21:37:24.056Z,2.75
2022-12-01T21:40:17.254Z,2.85
2022-12-01T21:43:19.022Z,2.83
2022-12-01T21:46:11.895Z,2.67
2022-12-01T21:48:59.657Z,2.25
2022-12-01T21:51:49.380Z,2.63
2022-12-01T21:54:37.173Z,2.63
2022-12-01T21:57:28.873Z,2.22
2022-12-01T22:00:26.943Z,2.20
2022-12-01T22:03:26.921Z,2.45
2022-12-01T22:06:35.257Z,2.38
2022-12-01T22:09:26.402Z,2.42
2022-12-01T22:12:17.235Z,2.38
2022-12-01T22:15:05.334Z,2.38
2022-12-01T22:17:52.891Z,2.35
2022-12-01T22:20:41.781Z,2.38
2022-12-01T22:23:32.843Z,2.40
2022-12-01T22:26:22.017Z,2.30
2022-12-01T22:29:29.676Z,2.40
2022-12-01T22:32:55.281Z,2.00
2022-12-01T22:36:03.276Z,2.20
2022-12-01T22:39:23.273Z,2.33
2022-12-01T22:42:33.499Z,2.45
2022-12-01T22:45:41.568Z,2.45
2022-12-01T22:48:50.948Z,2.20
2022-12-01T22:52:00.891Z,2.40
2022-12-01T22:55:12.708Z,1.98
2022-12-01T22:58:24.589Z,1.70
2022-12-01T23:01:33.590Z,2.20
2022-12-01T23:04:42.199Z,2.53
2022-12-01T23:07:50.594Z,1.90
2022-12-01T23:10:58.336Z,1.75
2022-12-01T23:14:10.193Z,2.00
2022-12-01T23:17:21.159Z,2.22
2022-12-01T23:20:33.685Z,2.10
2022-12-01T23:23:41.450Z,2.10
2022-12-01T23:26:49.532Z,2.58
2022-12-01T23:29:58.927Z,2.17
2022-12-01T23:33:12.686Z,2.40
2022-12-01T23:36:23.763Z,2.30
2022-12-01T23:39:33.248Z,2.10
2022-12-01T23:42:41.316Z,2.30
2022-12-01T23:45:52.306Z,2.58
2022-12-01T23:49:02.323Z,2.35
2022-12-01T23:52:11.724Z,2.20
2022-12-01T23:55:22.633Z,2.20
2022-12-01T23:58:30.525Z,1.75
